ADDS METAR Data INFO
IDs: Format: Raw Decoded Include TAF

Data at: 1532 UTC 25 Feb 2018

KJFZ 251515Z AUTO 25010G26KT 10SM OVC100 14/09 A3005 RMK AO2 T01410091
KJFZ 251455Z AUTO 23007G14KT 200V270 10SM OVC100 14/10 A3006 RMK AO2 60006 T01400095
KJFZ 251435Z AUTO 24011G18KT 10SM OVC110 15/08 A3006 RMK AO2 T01470076
KJFZ 251415Z AUTO 21011G19KT 10SM SCT080 OVC100 14/09 A3003 RMK AO2 T01400086
KJFZ 251355Z AUTO 22014G20KT 10SM -RA SCT055 BKN065 OVC090 13/10 A3004 RMK AO2 P0002 T01290102
KJFZ 251335Z AUTO 19009G14KT 150V230 10SM RA BKN065 OVC080 12/11 A3005 RMK AO2 P0002 T01200107
KJFZ 251315Z AUTO 16005KT 10SM -RA OVC070 12/11 A3006 RMK AO2 P0001 T01160106
KJFZ 251255Z AUTO 16004KT 10SM RA SCT055 OVC070 12/11 A3005 RMK AO2 P0004 T01200113
KJFZ 251235Z AUTO 24004KT 10SM -RA BKN070 OVC080 12/11 A3004 RMK AO2 P0002 T01220106
KJFZ 251215Z AUTO 26007KT 10SM -RA SCT009 BKN015 OVC070 13/11 A3005 RMK AO2 P0001 T01250113
KJFZ 251155Z AUTO 29009G17KT 260V320 10SM -RA BKN009 OVC015 13/12 A3004 RMK AO2 P0012 60043 70061 T01270117 10183 20127
KJFZ 251135Z AUTO 27007KT 10SM RA SCT010 BKN016 OVC023 13/12 A3004 RMK AO2 P0010 T01300119
KJFZ 251115Z AUTO 26006G14KT 7SM RA SCT008 BKN016 OVC036 13/12 A3002 RMK AO2 P0007 T01300119
KJFZ 251055Z AUTO 32012G17KT 5SM +RA SCT003 BKN010 OVC027 13/12 A2999 RMK AO2 P0031 T01310122
KJFZ 251035Z AUTO 31009G16KT 4SM +RA BKN005 BKN021 OVC029 14/14 A3000 RMK AO2 P0016 T01420135
KJFZ 251015Z AUTO 27013G19KT 7SM RA BKN029 BKN038 OVC046 15/13 A2997 RMK AO2 P0002 T01480132
KJFZ 250955Z AUTO 28008G17KT 10SM -RA SCT040 OVC049 17/12 A2994 RMK AO2 T01690121
KJFZ 250935Z AUTO 25009G15KT 10SM BKN047 BKN060 OVC075 17/12 A2992 RMK AO2 T01720119
KJFZ 250915Z AUTO 21007KT 10SM SCT050 SCT060 BKN075 17/12 A2992 RMK AO2 T01700120
KJFZ 250855Z AUTO 20006KT 10SM SCT070 SCT100 17/12 A2992 RMK AO2 T01650123
KJFZ 250835Z AUTO 24008KT 10SM SCT030 SCT070 OVC100 16/13 A2994 RMK AO2 T01630125
KJFZ 250815Z AUTO 24005G17KT 10SM -DZ BKN032 BKN042 OVC075 17/12 A2995 RMK AO2 T01660124
KJFZ 250755Z AUTO 21012G18KT 170V240 10SM RA SCT036 BKN055 OVC065 18/12 A2996 RMK AO2 T01790115
KJFZ 250735Z AUTO 20009G15KT 150V230 10SM BKN055 OVC065 18/11 A2994 RMK AO2 T01830112
KJFZ 250715Z AUTO 18005KT 10SM BKN065 OVC090 18/11 A2995 RMK AO2 T01800113
KJFZ 250655Z AUTO 19009KT 160V220 10SM SCT065 OVC100 18/11 A2996 RMK AO2 T01800113
KJFZ 250635Z AUTO 18009G15KT 150V210 10SM SCT085 BKN100 18/11 A2997 RMK AO2 T01810112
KJFZ 250615Z AUTO 17008KT 140V210 10SM SCT060 BKN085 18/11 A2997 RMK AO2 T01800112
KJFZ 250555Z AUTO 18006G16KT 10SM OVC085 18/11 A2998 RMK AO2 T01810111 10185 20150 401990129
KJFZ 250535Z AUTO 18010G18KT 140V200 10SM BKN085 18/11 A2998 RMK AO2 T01800110
KJFZ 250515Z AUTO 18010G17KT 140V210 10SM SCT085 18/11 A3000 RMK AO2 T01800110
KJFZ 250455Z AUTO 17010G15KT 140V200 10SM CLR 18/11 A2999 RMK AO2 T01800110
KJFZ 250435Z AUTO 18011G16KT 10SM SCT085 18/11 A3000 RMK AO2 T01800109
KJFZ 250415Z AUTO 19008G17KT 160V230 10SM SCT070 SCT095 18/11 A3000 RMK AO2 T01840108
KJFZ 250355Z AUTO 20009G14KT 10SM SCT095 18/11 A3001 RMK AO2 T01810110
KJFZ 250335Z AUTO 19006G15KT 10SM CLR 18/12 A3001 RMK AO2 T01800115
KJFZ 250315Z AUTO 17007G16KT 150V220 10SM CLR 18/12 A3002 RMK AO2 T01790116
KJFZ 250255Z AUTO 17009KT 130V190 10SM CLR 17/12 A3000 RMK AO2 T01720120
KJFZ 250235Z AUTO 15006KT 10SM CLR 15/12 A3001 RMK AO2 T01510122
KJFZ 250215Z AUTO 16004KT 10SM SCT070 15/13 A3001 RMK AO2 T01510125
KJFZ 250155Z AUTO 15004KT 10SM BKN060 16/13 A3002 RMK AO2 T01550125
KJFZ 250135Z AUTO 15004KT 10SM OVC060 16/13 A3003 RMK AO2 T01590127
KJFZ 250115Z AUTO 00000KT 10SM OVC070 16/13 A3004 RMK AO2 T01550130
KJFZ 250055Z AUTO 15003KT 10SM OVC070 16/13 A3006 RMK AO2 T01550130
KJFZ 250035Z AUTO 17003KT 10SM OVC060 16/13 A3006 RMK AO2 T01620127
KJFZ 250015Z AUTO 21009KT 10SM BKN065 BKN100 16/13 A3006 RMK AO2 T01640125
KJFZ 242355Z AUTO 20005KT 10SM BKN065 16/13 A3006 RMK AO2 LTG DSNT N T01620132 10199 20161
KJFZ 242335Z AUTO 17003KT 10SM OVC065 17/13 A3007 RMK AO2 T01650132
KJFZ 242315Z AUTO 18003KT 10SM SCT050 OVC065 17/13 A3008 RMK AO2 T01670132
KJFZ 242255Z AUTO 20003KT 10SM SCT036 SCT046 OVC060 17/13 A3008 RMK AO2 T01690130
KJFZ 242235Z AUTO 23010G16KT 10SM SCT038 SCT045 OVC050 17/13 A3008 RMK AO2 T01710130
KJFZ 242215Z AUTO 22006KT 170V260 10SM OVC050 18/13 A3007 RMK AO2 T01770127
KJFZ 242155Z AUTO 24005KT 10SM BKN055 BKN075 OVC090 18/13 A3006 RMK AO2 T01800131
KJFZ 242135Z AUTO 23005KT 10SM SCT055 BKN090 BKN120 19/13 A3006 RMK AO2 T01850134
KJFZ 242115Z AUTO 25006KT 10SM SCT055 BKN075 BKN090 19/13 A3006 RMK AO2 T01880133
KJFZ 242055Z AUTO 22004KT 10SM BKN055 BKN065 OVC080 19/13 A3006 RMK AO2 T01900130
KJFZ 242035Z AUTO 25007KT 10SM BKN050 BKN065 OVC090 19/13 A3006 RMK AO2 T01910132
KJFZ 242015Z AUTO 23005KT 10SM -RA SCT044 SCT060 OVC090 19/13 A3007 RMK AO2 T01890134
KJFZ 241955Z AUTO 24006KT 10SM SCT035 SCT047 OVC060 19/13 A3007 RMK AO2 T01910128
KJFZ 241935Z AUTO 26005G15KT 10SM SCT038 BKN070 OVC080 19/13 A3008 RMK AO2 T01920128
KJFZ 241915Z AUTO 23007G14KT 200V260 10SM SCT033 BKN070 OVC095 19/13 A3008 RMK AO2 T01940128
KJFZ 241855Z AUTO 23007G16KT 10SM SCT033 BKN070 OVC100 20/14 A3009 RMK AO2 T01960135
KJFZ 241835Z AUTO 22005KT 10SM SCT027 BKN070 BKN090 20/14 A3010 RMK AO2 T01950135
KJFZ 241815Z AUTO 25008KT 10SM BKN027 BKN070 OVC095 18/13 A3011 RMK AO2 T01830132
KJFZ 241755Z AUTO 21007G17KT 180V240 10SM OVC027 18/13 A3012 RMK AO2 60018 T01820131 10183 20129
KJFZ 241735Z AUTO 20007KT 170V240 10SM BKN027 OVC031 18/13 A3013 RMK AO2 T01800130
KJFZ 241715Z AUTO 23009G16KT 170V270 10SM OVC027 18/13 A3015 RMK AO2 T01800130
KJFZ 241655Z AUTO 23009G18KT 190V250 10SM OVC025 18/13 A3015 RMK AO2 T01800133
KJFZ 241635Z AUTO 22009G15KT 190V250 10SM BKN025 OVC031 18/14 A3015 RMK AO2 T01760138
KJFZ 241615Z AUTO 16003KT 10SM SCT022 BKN028 BKN045 16/14 A3017 RMK AO2 T01620142
KJFZ 241555Z AUTO 20004KT 10SM OVC024 15/13 A3017 RMK AO2 P0001 T01520133
KJFZ 241535Z AUTO 25005KT 10SM OVC025 14/13 A3017 RMK AO2 P0001 T01430131
KJFZ 241515Z AUTO 20005KT 5SM DZ SCT023 BKN029 OVC050 14/13 A3017 RMK AO2 P0001 T01400131
KJFZ 241455Z AUTO 16003KT 4SM -RA SCT021 BKN034 OVC070 14/13 A3017 RMK AO2 P0002 60017 T01360130
KJFZ 241435Z AUTO 19004KT 5SM +DZ SCT021 SCT034 OVC039 14/13 A3019 RMK AO2 P0001 T01350125
KJFZ 241415Z AUTO 21003KT 7SM DZ BKN039 BKN048 OVC085 13/13 A3019 RMK AO2 P0001 T01310125
KJFZ 241355Z AUTO 14003KT 5SM RA SCT055 OVC085 13/12 A3018 RMK AO2 P0012 T01310123
KJFZ 241335Z AUTO 15003KT 4SM +RA SCT040 BKN055 OVC085 14/12 A3018 RMK AO2 P0009 T01370122
KJFZ 241315Z AUTO 23007KT 5SM +RA SCT042 BKN065 OVC080 15/12 A3020 RMK AO2 P0004 T01460116
KJFZ 241255Z AUTO 23003KT 10SM RA SCT070 OVC080 15/11 A3019 RMK AO2 P0003 T01470114
KJFZ 241235Z AUTO 25003KT 10SM RA OVC080 15/11 A3018 RMK AO2 P0001 T01520107
KJFZ 241215Z AUTO 24003KT 10SM -RA SCT050 BKN085 OVC100 15/10 A3018 RMK AO2 T01540100
KJFZ 241155Z AUTO 00000KT 10SM OVC110 16/10 A3018 RMK AO2 T01590097 10171 20147
KJFZ 241135Z AUTO 00000KT 10SM OVC110 16/10 A3018 RMK AO2 T01600097
KJFZ 241115Z AUTO 20003KT 10SM OVC110 17/10 A3018 RMK AO2 T01650097
KJFZ 241055Z AUTO 19005KT 10SM OVC120 16/10 A3019 RMK AO2 T01600100
KJFZ 241035Z AUTO 21003KT 10SM OVC110 16/10 A3018 RMK AO2 T01600100
KJFZ 241015Z AUTO 20004KT 10SM BKN120 16/10 A3018 RMK AO2 T01570101
KJFZ 240955Z AUTO 19004KT 10SM SCT120 16/10 A3019 RMK AO2 T01570102
KJFZ 240935Z AUTO 20005KT 10SM CLR 15/10 A3019 RMK AO2 T01500103
KJFZ 240915Z AUTO 18003KT 10SM CLR 15/11 A3020 RMK AO2 T01520105
KJFZ 240855Z AUTO 18004KT 10SM CLR 15/11 A3020 RMK AO2 T01540105
KJFZ 240835Z AUTO 20003KT 10SM SCT060 16/11 A3021 RMK AO2 T01610105
KJFZ 240815Z AUTO 20004KT 10SM SCT045 SCT060 17/11 A3023 RMK AO2 T01670105
KJFZ 240755Z AUTO 23009KT 10SM CLR 17/11 A3023 RMK AO2 T01680105
KJFZ 240735Z AUTO 24008KT 10SM CLR 17/11 A3024 RMK AO2 T01700105
KJFZ 240715Z AUTO 22005KT 10SM CLR 17/11 A3024 RMK AO2 T01700105
KJFZ 240655Z AUTO 21003KT 10SM CLR 17/11 A3025 RMK AO2 T01690106
KJFZ 240635Z AUTO 00000KT 10SM CLR 16/11 A3025 RMK AO2 T01630107
KJFZ 240615Z AUTO 18003KT 10SM CLR 17/11 A3026 RMK AO2 T01660108
KJFZ 240555Z AUTO 19003KT 10SM CLR 17/11 A3026 RMK AO2 T01700107 10198 20167 402320130
KJFZ 240535Z AUTO 21003KT 10SM CLR 17/11 A3026 RMK AO2 T01720108
KJFZ 240515Z AUTO 00000KT 10SM CLR 17/11 A3027 RMK AO2 T01700108
KJFZ 240455Z AUTO 17003KT 10SM SCT075 SCT085 17/11 A3027 RMK AO2 T01740109
KJFZ 240435Z AUTO 21004KT 10SM SCT050 SCT075 BKN085 18/11 A3028 RMK AO2 T01750109
KJFZ 240415Z AUTO 18004KT 10SM BKN050 BKN065 OVC080 18/11 A3028 RMK AO2 T01750109
KJFZ 240355Z AUTO 18004KT 10SM BKN048 OVC080 18/11 A3028 RMK AO2 T01770107
KJFZ 240335Z AUTO 18004KT 10SM BKN048 18/10 A3028 RMK AO2 T01780103